createdAt,value
2023-03-06T00:00:47.712Z,0.10
2023-03-06T00:03:15.551Z,0.10
2023-03-06T00:05:42.554Z,0.10
2023-03-06T00:08:09.412Z,0.20
2023-03-06T00:10:36.642Z,0.10
2023-03-06T00:13:06.341Z,0.20
2023-03-06T00:15:33.586Z,0.10
2023-03-06T00:18:02.891Z,0.20
2023-03-06T00:20:29.832Z,0.10
2023-03-06T00:22:57.584Z,0.10
2023-03-06T00:25:25.305Z,0.10
2023-03-06T00:27:52.804Z,0.10
2023-03-06T00:30:23.191Z,0.20
2023-03-06T00:32:50.622Z,0.10
2023-03-06T00:35:17.861Z,0.20
2023-03-06T00:37:44.994Z,0.10
2023-03-06T00:40:14.983Z,0.10
2023-03-06T00:42:42.555Z,0.10
2023-03-06T00:45:10.199Z,0.10
2023-03-06T00:47:37.239Z,0.10
2023-03-06T00:50:05.018Z,0.10
2023-03-06T00:52:31.803Z,0.10
2023-03-06T00:54:58.692Z,0.10
2023-03-06T00:57:25.601Z,0.10
2023-03-06T00:59:52.481Z,0.10
2023-03-06T01:02:21.618Z,0.10
2023-03-06T01:04:48.660Z,0.10
2023-03-06T01:07:15.498Z,0.10
2023-03-06T01:09:42.508Z,0.10
2023-03-06T01:12:09.563Z,0.10
2023-03-06T01:14:36.389Z,0.10
2023-03-06T01:17:03.206Z,0.10
2023-03-06T01:19:30.104Z,0.10
2023-03-06T01:21:57.134Z,0.10
2023-03-06T01:24:25.785Z,0.10
2023-03-06T01:26:56.529Z,0.10
2023-03-06T01:29:23.394Z,0.10
2023-03-06T01:31:50.307Z,0.10
2023-03-06T01:34:17.185Z,0.20
2023-03-06T01:36:44.005Z,0.20
2023-03-06T01:39:10.894Z,0.20
2023-03-06T01:41:37.939Z,0.10
2023-03-06T01:44:04.832Z,0.20
2023-03-06T01:46:42.046Z,0.20
2023-03-06T01:49:12.092Z,0.20
2023-03-06T01:51:42.969Z,0.20
2023-03-06T01:54:15.892Z,0.20
2023-03-06T01:56:46.764Z,0.20
2023-03-06T01:59:14.704Z,0.20
2023-03-06T02:01:42.135Z,0.10
2023-03-06T02:04:10.307Z,0.10
2023-03-06T02:06:39.489Z,0.20
2023-03-06T02:09:06.865Z,0.20
2023-03-06T02:11:33.703Z,0.20
2023-03-06T02:14:01.088Z,0.10
2023-03-06T02:16:31.379Z,0.20
2023-03-06T02:19:01.516Z,0.20
2023-03-06T02:21:38.001Z,0.20
2023-03-06T02:24:32.359Z,0.20
2023-03-06T02:27:01.079Z,0.10
2023-03-06T02:29:29.980Z,0.20
2023-03-06T02:32:00.310Z,0.20
2023-03-06T02:34:27.092Z,0.10
2023-03-06T02:37:11.131Z,0.10
2023-03-06T02:39:46.981Z,0.20
2023-03-06T02:42:19.392Z,0.20
2023-03-06T02:44:46.682Z,0.20
2023-03-06T02:47:13.532Z,0.20
2023-03-06T02:49:40.342Z,0.20
2023-03-06T02:52:08.021Z,0.20
2023-03-06T02:54:34.784Z,0.20
2023-03-06T02:57:02.221Z,0.20
2023-03-06T02:59:30.678Z,0.20
2023-03-06T03:01:57.957Z,0.20
2023-03-06T03:04:24.947Z,0.20
2023-03-06T03:06:51.740Z,0.20
2023-03-06T03:09:18.659Z,0.20
2023-03-06T03:11:45.502Z,0.20
2023-03-06T03:14:12.321Z,0.20
2023-03-06T03:16:39.381Z,0.20
2023-03-06T03:19:06.197Z,0.10
2023-03-06T03:21:33.916Z,0.10
2023-03-06T03:24:00.673Z,0.10
2023-03-06T03:26:28.247Z,0.10
2023-03-06T03:29:05.045Z,0.10
2023-03-06T03:31:32.643Z,0.10
2023-03-06T03:34:00.727Z,0.10
2023-03-06T03:36:29.885Z,0.10
2023-03-06T03:38:57.961Z,0.10
2023-03-06T03:41:24.790Z,0.10
2023-03-06T03:43:52.307Z,0.10
2023-03-06T03:46:21.470Z,0.10
2023-03-06T03:48:49.274Z,0.10
2023-03-06T03:51:16.886Z,0.10
2023-03-06T03:53:49.249Z,0.10
2023-03-06T03:56:19.601Z,0.10
2023-03-06T03:58:55.019Z,0.10
2023-03-06T04:01:23.184Z,0.10
2023-03-06T04:03:50.251Z,0.10
2023-03-06T04:06:18.081Z,0.10
2023-03-06T04:08:45.370Z,0.10
2023-03-06T04:11:12.154Z,0.10
2023-03-06T04:13:39.593Z,0.10
2023-03-06T04:16:06.827Z,0.10
2023-03-06T04:18:35.607Z,0.10
2023-03-06T04:21:05.225Z,0.10
2023-03-06T04:23:32.808Z,0.10
2023-03-06T04:25:59.969Z,0.10
2023-03-06T04:28:27.637Z,0.10
2023-03-06T04:30:54.419Z,0.10
2023-03-06T04:33:21.481Z,0.10
2023-03-06T04:35:48.762Z,0.10
2023-03-06T04:38:21.010Z,0.10
2023-03-06T04:40:49.611Z,0.10
2023-03-06T04:43:16.757Z,0.10
2023-03-06T04:45:43.645Z,0.10
2023-03-06T04:48:14.209Z,0.10
2023-03-06T04:50:41.104Z,0.10
2023-03-06T04:53:08.661Z,0.10
2023-03-06T04:55:35.575Z,0.10
2023-03-06T04:58:02.462Z,0.00
2023-03-06T05:00:31.512Z,0.00
2023-03-06T05:03:00.131Z,0.00
2023-03-06T05:05:27.600Z,0.00
2023-03-06T05:07:54.667Z,0.00
2023-03-06T05:10:22.493Z,0.00
2023-03-06T05:12:49.324Z,0.00
2023-03-06T05:15:16.363Z,0.00
2023-03-06T05:17:43.478Z,-0.10
2023-03-06T05:20:12.006Z,-0.10
2023-03-06T05:22:38.860Z,-0.10
2023-03-06T05:25:06.494Z,-0.10
2023-03-06T05:27:33.895Z,-0.10
2023-03-06T05:30:00.967Z,-0.10
2023-03-06T05:32:27.890Z,-0.10
2023-03-06T05:34:54.810Z,-0.10
2023-03-06T05:37:23.084Z,-0.10
2023-03-06T05:39:50.715Z,-0.10
2023-03-06T05:42:18.449Z,-0.10
2023-03-06T05:44:45.830Z,-0.10
2023-03-06T05:47:12.876Z,-0.10
2023-03-06T05:49:39.756Z,-0.10
2023-03-06T05:52:07.536Z,-0.20
2023-03-06T05:54:35.895Z,-0.10
2023-03-06T05:57:04.362Z,-0.10
2023-03-06T05:59:32.924Z,-0.20
2023-03-06T06:02:00.720Z,-0.20
2023-03-06T06:04:28.276Z,-0.20
2023-03-06T06:06:59.909Z,-0.20
2023-03-06T06:09:27.769Z,-0.20
2023-03-06T06:12:00.164Z,-0.20
2023-03-06T06:14:27.421Z,-0.20
2023-03-06T06:16:54.664Z,-0.20
2023-03-06T06:19:22.754Z,-0.20
2023-03-06T06:21:52.236Z,-0.20
2023-03-06T06:24:22.634Z,-0.20
2023-03-06T06:26:55.108Z,-0.20
2023-03-06T06:29:22.884Z,-0.20
2023-03-06T06:31:50.575Z,-0.20
2023-03-06T06:34:18.016Z,-0.20
2023-03-06T06:36:44.827Z,-0.20
2023-03-06T06:39:15.016Z,-0.10
2023-03-06T06:41:59.414Z,-0.10
2023-03-06T06:44:28.607Z,0.00
2023-03-06T06:49:42.266Z,0.10
2023-03-06T06:52:10.369Z,0.10
2023-03-06T06:54:37.487Z,0.10
2023-03-06T06:57:04.572Z,0.10
2023-03-06T06:59:31.371Z,0.20
2023-03-06T07:01:58.212Z,0.20
2023-03-06T07:04:25.012Z,0.20
2023-03-06T07:06:54.749Z,0.30
2023-03-06T07:09:22.292Z,0.20
2023-03-06T07:11:49.322Z,0.30
2023-03-06T07:14:16.219Z,0.30
2023-03-06T07:16:43.035Z,0.30
2023-03-06T07:19:09.869Z,0.30
2023-03-06T07:21:36.661Z,0.30
2023-03-06T07:24:03.717Z,0.30
2023-03-06T07:26:32.703Z,0.40
2023-03-06T07:29:02.063Z,0.30
2023-03-06T07:31:29.088Z,0.30
2023-03-06T07:33:55.984Z,0.40
2023-03-06T07:36:24.157Z,0.40
2023-03-06T07:38:51.051Z,0.50
2023-03-06T07:41:20.537Z,0.50
2023-03-06T07:43:49.751Z,0.50
2023-03-06T07:46:17.404Z,0.50
2023-03-06T07:48:44.631Z,0.50
2023-03-06T07:51:16.901Z,0.60
2023-03-06T07:53:44.190Z,0.60
2023-03-06T07:56:11.938Z,0.70
2023-03-06T07:58:40.884Z,0.80
2023-03-06T08:01:10.389Z,0.90
2023-03-06T08:03:37.548Z,0.90
2023-03-06T08:06:19.981Z,1.00
2023-03-06T08:08:48.613Z,1.00
2023-03-06T08:11:17.344Z,1.00
2023-03-06T08:13:44.794Z,1.10
2023-03-06T08:16:11.922Z,1.10
2023-03-06T08:18:39.949Z,1.20
2023-03-06T08:21:18.850Z,1.20
2023-03-06T08:23:46.404Z,1.30
2023-03-06T08:26:24.824Z,1.30
2023-03-06T08:28:53.619Z,1.40
2023-03-06T08:31:23.159Z,1.40
2023-03-06T08:33:50.408Z,1.40
2023-03-06T08:36:17.213Z,1.50
2023-03-06T08:38:44.023Z,1.60
2023-03-06T08:41:10.889Z,1.60
2023-03-06T08:43:37.780Z,1.70
2023-03-06T08:46:04.825Z,1.70
2023-03-06T08:48:31.863Z,1.80
2023-03-06T08:50:58.721Z,1.90
2023-03-06T08:53:40.362Z,2.00
2023-03-06T08:56:14.973Z,2.00
2023-03-06T08:58:41.764Z,2.10
2023-03-06T09:01:20.969Z,2.10
2023-03-06T09:03:48.343Z,2.10
2023-03-06T09:06:15.430Z,2.10
2023-03-06T09:08:44.436Z,2.20
2023-03-06T09:11:12.784Z,2.20
2023-03-06T09:13:39.810Z,2.30
2023-03-06T09:16:07.239Z,2.40
2023-03-06T09:18:34.228Z,2.40
2023-03-06T09:21:01.140Z,2.50
2023-03-06T09:23:27.919Z,2.60
2023-03-06T09:25:56.792Z,2.60
2023-03-06T09:28:24.795Z,2.70
2023-03-06T09:30:52.446Z,2.70
2023-03-06T09:33:20.173Z,2.80
2023-03-06T09:35:54.894Z,2.70
2023-03-06T09:38:27.203Z,2.70
2023-03-06T09:41:15.666Z,2.80
2023-03-06T09:43:48.343Z,2.80
2023-03-06T09:46:22.172Z,2.90
2023-03-06T09:49:10.590Z,2.90
2023-03-06T09:52:02.361Z,3.00
2023-03-06T09:54:42.686Z,3.00
2023-03-06T09:57:33.031Z,3.10
2023-03-06T10:00:07.256Z,3.20
2023-03-06T10:02:47.922Z,3.20
2023-03-06T10:05:28.756Z,3.30
2023-03-06T10:08:03.189Z,3.50
2023-03-06T10:10:58.626Z,3.70
2023-03-06T10:13:45.868Z,3.90
2023-03-06T10:16:32.042Z,4.00
2023-03-06T10:19:05.214Z,4.20
2023-03-06T10:21:38.283Z,4.20
2023-03-06T10:24:28.246Z,4.20
2023-03-06T10:27:19.189Z,4.10
2023-03-06T10:30:02.667Z,4.10
2023-03-06T10:32:58.717Z,3.90
2023-03-06T10:35:48.284Z,3.60
2023-03-06T10:38:37.472Z,3.30
2023-03-06T10:41:11.827Z,3.10
2023-03-06T10:43:42.793Z,2.90
2023-03-06T10:46:12.381Z,2.70
2023-03-06T10:48:42.268Z,2.60
2023-03-06T10:51:19.799Z,2.40
2023-03-06T10:53:54.084Z,2.40
2023-03-06T10:56:36.252Z,2.40
2023-03-06T10:59:09.042Z,2.50
2023-03-06T11:01:36.041Z,2.60
2023-03-06T11:04:28.661Z,2.80
2023-03-06T11:07:12.326Z,3.00
2023-03-06T11:09:39.207Z,3.20
2023-03-06T11:12:25.757Z,3.30
2023-03-06T11:15:21.152Z,3.40
2023-03-06T11:17:51.545Z,3.50
2023-03-06T11:20:24.164Z,3.40
2023-03-06T11:23:03.102Z,3.30
2023-03-06T11:25:39.114Z,3.20
2023-03-06T11:28:23.902Z,3.20
2023-03-06T11:30:57.845Z,3.10
2023-03-06T11:33:29.792Z,3.20
2023-03-06T11:36:19.276Z,3.10
2023-03-06T11:38:51.764Z,3.10
2023-03-06T11:41:24.975Z,3.10
2023-03-06T11:44:07.951Z,3.20
2023-03-06T11:46:41.658Z,3.30
2023-03-06T11:49:26.212Z,3.40
2023-03-06T11:51:59.429Z,3.50
2023-03-06T11:54:26.675Z,3.70
2023-03-06T11:57:04.994Z,3.80
2023-03-06T11:59:50.853Z,3.80
2023-03-06T12:02:43.804Z,4.00
2023-03-06T12:05:28.386Z,4.00
2023-03-06T12:08:33.422Z,4.10
2023-03-06T12:14:04.431Z,4.00
2023-03-06T12:16:43.092Z,4.00
2023-03-06T12:19:26.470Z,4.10
2023-03-06T12:22:24.273Z,4.20
2023-03-06T12:25:05.970Z,4.30
2023-03-06T12:27:49.900Z,4.40
2023-03-06T12:30:38.738Z,4.50
2023-03-06T12:33:22.852Z,4.60
2023-03-06T12:36:17.494Z,4.60
2023-03-06T12:39:09.738Z,4.60
2023-03-06T12:41:57.384Z,4.60
2023-03-06T12:44:48.207Z,4.60
2023-03-06T12:47:20.144Z,4.60
2023-03-06T12:50:01.372Z,4.70
2023-03-06T12:52:31.244Z,4.70
2023-03-06T12:55:00.943Z,4.70
2023-03-06T12:57:27.736Z,4.70
2023-03-06T12:59:55.225Z,4.60
2023-03-06T13:02:54.786Z,4.60
2023-03-06T13:06:00.045Z,4.60
2023-03-06T13:08:35.052Z,4.60
2023-03-06T13:11:21.138Z,4.50
2023-03-06T13:13:48.848Z,4.50
2023-03-06T13:16:18.662Z,4.50
2023-03-06T13:18:54.266Z,4.50
2023-03-06T13:21:56.268Z,4.40
2023-03-06T13:24:29.492Z,4.30
2023-03-06T13:27:19.118Z,4.20
2023-03-06T13:29:51.486Z,4.10
2023-03-06T13:32:27.980Z,4.10
2023-03-06T13:34:55.215Z,4.00
2023-03-06T13:37:24.839Z,4.00
2023-03-06T13:40:01.490Z,4.10
2023-03-06T13:42:30.998Z,4.10
2023-03-06T13:45:06.520Z,4.20
2023-03-06T13:50:47.388Z,4.30
2023-03-06T13:53:48.976Z,4.50
2023-03-06T13:56:40.049Z,4.50
2023-03-06T13:59:34.355Z,4.60
2023-03-06T14:02:19.731Z,4.60
2023-03-06T14:04:54.166Z,4.50
2023-03-06T14:07:24.840Z,4.40
2023-03-06T14:10:13.073Z,4.40
2023-03-06T14:12:48.641Z,4.30
2023-03-06T14:15:25.557Z,4.30
2023-03-06T14:18:05.898Z,4.30
2023-03-06T14:21:04.548Z,4.20
2023-03-06T14:23:34.340Z,4.10
2023-03-06T14:26:10.512Z,4.10
2023-03-06T14:28:37.451Z,4.10
2023-03-06T14:31:06.145Z,4.10
2023-03-06T14:33:49.480Z,4.10
2023-03-06T14:36:19.956Z,4.10
2023-03-06T14:38:53.789Z,4.10
2023-03-06T14:41:30.152Z,4.10
2023-03-06T14:44:19.089Z,4.10
2023-03-06T14:46:48.269Z,4.00
2023-03-06T14:49:17.135Z,4.00
2023-03-06T14:51:49.878Z,3.80
2023-03-06T14:54:29.023Z,3.80
2023-03-06T14:57:05.972Z,3.70
2023-03-06T14:59:43.866Z,3.60
2023-03-06T15:02:18.472Z,3.60
2023-03-06T15:04:49.119Z,3.50
2023-03-06T15:07:26.863Z,3.60
2023-03-06T15:09:54.730Z,3.50
2023-03-06T15:12:22.595Z,3.50
2023-03-06T15:14:59.973Z,3.50
2023-03-06T15:17:32.466Z,3.40
2023-03-06T15:20:00.830Z,3.40
2023-03-06T15:22:37.886Z,3.30
2023-03-06T15:25:32.377Z,3.30
2023-03-06T15:28:00.512Z,3.30
2023-03-06T15:30:31.112Z,3.30
2023-03-06T15:33:10.398Z,3.40
2023-03-06T15:35:38.294Z,3.40
2023-03-06T15:38:42.142Z,3.40
2023-03-06T15:41:24.034Z,3.40
2023-03-06T15:43:51.343Z,3.40
2023-03-06T15:46:18.076Z,3.40
2023-03-06T15:48:52.636Z,3.40
2023-03-06T15:51:19.417Z,3.40
2023-03-06T15:53:46.238Z,3.40
2023-03-06T15:56:13.806Z,3.40
2023-03-06T15:58:42.506Z,3.40
2023-03-06T16:01:16.062Z,3.40
2023-03-06T16:03:43.451Z,3.40
2023-03-06T16:06:18.719Z,3.40
2023-03-06T16:08:45.772Z,3.30
2023-03-06T16:11:24.585Z,3.30
2023-03-06T16:13:54.156Z,3.30
2023-03-06T16:16:30.225Z,3.20
2023-03-06T16:18:56.994Z,3.20
2023-03-06T16:21:23.752Z,3.20
2023-03-06T16:23:50.562Z,3.10
2023-03-06T16:26:34.828Z,3.10
2023-03-06T16:29:02.019Z,3.10
2023-03-06T16:31:28.859Z,3.00
2023-03-06T16:33:56.209Z,2.90
2023-03-06T16:36:25.121Z,2.80
2023-03-06T16:38:52.349Z,2.80
2023-03-06T16:41:20.295Z,2.70
2023-03-06T16:43:48.204Z,2.70
2023-03-06T16:46:21.014Z,2.60
2023-03-06T16:48:48.756Z,2.60
2023-03-06T16:51:18.020Z,2.50
2023-03-06T16:53:45.890Z,2.50
2023-03-06T16:56:14.992Z,2.50
2023-03-06T16:58:42.543Z,2.40
2023-03-06T17:01:10.400Z,2.40
2023-03-06T17:03:37.363Z,2.40
2023-03-06T17:06:04.619Z,2.30
2023-03-06T17:08:31.413Z,2.30
2023-03-06T17:10:58.136Z,2.30
2023-03-06T17:13:24.847Z,2.20
2023-03-06T17:15:59.370Z,2.20
2023-03-06T17:18:27.415Z,2.10
2023-03-06T17:20:54.861Z,2.10
2023-03-06T17:23:25.934Z,2.10
2023-03-06T17:26:01.874Z,2.00
2023-03-06T17:28:28.664Z,2.00
2023-03-06T17:30:55.422Z,1.90
2023-03-06T17:33:22.196Z,1.90
2023-03-06T17:35:49.150Z,1.90
2023-03-06T17:38:15.878Z,1.90
2023-03-06T17:40:42.688Z,1.90
2023-03-06T17:43:09.462Z,1.80
2023-03-06T17:45:37.040Z,1.80
2023-03-06T17:48:03.920Z,1.80
2023-03-06T17:50:30.658Z,1.80
2023-03-06T17:52:57.402Z,1.80
2023-03-06T17:55:24.107Z,1.70
2023-03-06T17:57:52.216Z,1.70
2023-03-06T18:00:19.799Z,1.60
2023-03-06T18:02:46.852Z,1.60
2023-03-06T18:05:13.689Z,1.60
2023-03-06T18:07:40.669Z,1.50
2023-03-06T18:10:07.713Z,1.50
2023-03-06T18:12:34.474Z,1.50
2023-03-06T18:15:01.217Z,1.50
2023-03-06T18:17:28.195Z,1.50
2023-03-06T18:19:56.748Z,1.40
2023-03-06T18:22:23.598Z,1.40
2023-03-06T18:24:50.608Z,1.40
2023-03-06T18:27:17.404Z,1.40
2023-03-06T18:29:44.192Z,1.30
2023-03-06T18:32:11.063Z,1.30
2023-03-06T18:34:38.083Z,1.30
2023-03-06T18:37:04.898Z,1.40
2023-03-06T18:39:31.666Z,1.30
2023-03-06T18:41:58.464Z,1.30
2023-03-06T18:44:25.192Z,1.30
2023-03-06T18:46:51.884Z,1.30
2023-03-06T18:49:18.966Z,1.30
2023-03-06T18:51:48.063Z,1.20
2023-03-06T18:54:14.820Z,1.20
2023-03-06T18:56:44.099Z,1.20
2023-03-06T18:59:16.109Z,1.20
2023-03-06T19:01:45.662Z,1.20
2023-03-06T19:04:12.479Z,1.20
2023-03-06T19:06:40.463Z,1.20
2023-03-06T19:09:07.726Z,1.20
2023-03-06T19:11:34.723Z,1.20
2023-03-06T19:14:01.812Z,1.20
2023-03-06T19:16:30.417Z,1.10
2023-03-06T19:18:57.754Z,1.10
2023-03-06T19:21:26.335Z,1.20
2023-03-06T19:23:53.688Z,1.10
2023-03-06T19:26:21.071Z,1.20
2023-03-06T19:28:48.582Z,1.10
2023-03-06T19:31:20.490Z,1.10
2023-03-06T19:33:49.093Z,1.10
2023-03-06T19:36:17.416Z,1.10
2023-03-06T19:38:44.226Z,1.10
2023-03-06T19:41:13.539Z,1.10
2023-03-06T19:43:41.420Z,1.10
2023-03-06T19:46:15.562Z,1.10
2023-03-06T19:48:42.581Z,1.10
2023-03-06T19:51:10.185Z,1.10
2023-03-06T19:53:37.729Z,1.10
2023-03-06T19:56:10.421Z,1.10
2023-03-06T19:58:37.375Z,1.00
2023-03-06T20:01:13.536Z,1.00
2023-03-06T20:03:41.124Z,1.10
2023-03-06T20:06:14.201Z,1.10
2023-03-06T20:08:44.586Z,1.00
2023-03-06T20:11:23.883Z,1.00
2023-03-06T20:13:50.927Z,1.00
2023-03-06T20:16:18.207Z,1.00
2023-03-06T20:18:45.662Z,1.00
2023-03-06T20:21:12.567Z,1.00
2023-03-06T20:23:39.499Z,1.00
2023-03-06T20:26:09.616Z,1.00
2023-03-06T20:28:38.149Z,0.90
2023-03-06T20:31:17.667Z,1.00
2023-03-06T20:33:46.175Z,0.90
2023-03-06T20:36:39.213Z,0.90
2023-03-06T20:39:14.060Z,0.90
2023-03-06T20:41:41.601Z,0.90
2023-03-06T20:44:13.464Z,0.90
2023-03-06T20:46:40.630Z,0.90
2023-03-06T20:49:08.709Z,0.90
2023-03-06T20:51:39.052Z,0.90
2023-03-06T20:54:07.793Z,0.90
2023-03-06T20:56:36.587Z,0.90
2023-03-06T20:59:03.629Z,0.90
2023-03-06T21:01:33.221Z,0.90
2023-03-06T21:04:02.171Z,0.90
2023-03-06T21:06:29.311Z,0.90
2023-03-06T21:08:58.549Z,0.90
2023-03-06T21:11:26.177Z,0.90
2023-03-06T21:13:53.771Z,0.90
2023-03-06T21:16:22.717Z,0.90
2023-03-06T21:18:49.653Z,0.80
2023-03-06T21:21:19.145Z,0.90
2023-03-06T21:23:47.278Z,0.80
2023-03-06T21:26:17.915Z,0.80
2023-03-06T21:28:44.704Z,0.80
2023-03-06T21:31:14.143Z,0.80
2023-03-06T21:33:41.418Z,0.80
2023-03-06T21:36:09.098Z,0.70
2023-03-06T21:38:36.214Z,0.70
2023-03-06T21:41:20.752Z,0.70
2023-03-06T21:43:47.532Z,0.70
2023-03-06T21:46:14.743Z,0.70
2023-03-06T21:48:41.752Z,0.70
2023-03-06T21:51:15.768Z,0.70
2023-03-06T21:53:43.660Z,0.70
2023-03-06T21:56:11.163Z,0.60
2023-03-06T21:58:38.192Z,0.70
2023-03-06T22:01:13.608Z,0.60
2023-03-06T22:03:40.585Z,0.70
2023-03-06T22:06:12.563Z,0.60
2023-03-06T22:08:40.408Z,0.60
2023-03-06T22:11:13.077Z,0.60
2023-03-06T22:13:40.658Z,0.60
2023-03-06T22:16:07.790Z,0.60
2023-03-06T22:18:35.710Z,0.60
2023-03-06T22:21:14.295Z,0.60
2023-03-06T22:23:41.763Z,0.60
2023-03-06T22:26:11.223Z,0.60
2023-03-06T22:28:38.366Z,0.60
2023-03-06T22:31:09.361Z,0.60
2023-03-06T22:33:36.895Z,0.60
2023-03-06T22:36:07.616Z,0.60
2023-03-06T22:38:39.903Z,0.60
2023-03-06T22:41:08.149Z,0.60
2023-03-06T22:43:35.831Z,0.60
2023-03-06T22:46:07.880Z,0.60
2023-03-06T22:48:34.711Z,0.60
2023-03-06T22:51:07.471Z,0.60
2023-03-06T22:53:34.421Z,0.60
2023-03-06T22:56:02.276Z,0.60
2023-03-06T22:58:34.440Z,0.60
2023-03-06T23:01:13.761Z,0.60
2023-03-06T23:03:45.867Z,0.60
2023-03-06T23:06:12.600Z,0.70
2023-03-06T23:08:39.414Z,0.70
2023-03-06T23:11:14.936Z,0.60
2023-03-06T23:14:00.765Z,0.60
2023-03-06T23:16:46.319Z,0.60
2023-03-06T23:19:31.490Z,0.70
2023-03-06T23:22:16.921Z,0.70
2023-03-06T23:25:02.691Z,0.60
2023-03-06T23:27:29.449Z,0.60
2023-03-06T23:29:58.829Z,0.70
2023-03-06T23:32:25.795Z,0.70
2023-03-06T23:34:52.738Z,0.70
2023-03-06T23:37:19.496Z,0.60
2023-03-06T23:39:46.959Z,0.70
2023-03-06T23:42:13.706Z,0.70
2023-03-06T23:44:40.438Z,0.70
2023-03-06T23:47:07.235Z,0.70
2023-03-06T23:49:34.094Z,0.70
2023-03-06T23:52:00.925Z,0.70
2023-03-06T23:54:27.705Z,0.70
2023-03-06T23:56:54.482Z,0.80
2023-03-06T23:59:21.430Z,0.70
